createdAt,value
2023-04-11T00:01:46.805Z,12.60
2023-04-11T00:04:17.210Z,12.50
2023-04-11T00:06:45.444Z,12.50
2023-04-11T00:09:13.772Z,12.50
2023-04-11T00:11:41.923Z,12.40
2023-04-11T00:14:10.683Z,12.40
2023-04-11T00:16:39.561Z,12.40
2023-04-11T00:19:09.301Z,12.40
2023-04-11T00:21:40.082Z,12.30
2023-04-11T00:24:09.070Z,12.30
2023-04-11T00:26:37.190Z,12.30
2023-04-11T00:29:05.298Z,12.20
2023-04-11T00:31:33.559Z,12.30
2023-04-11T00:34:01.642Z,12.20
2023-04-11T00:36:29.929Z,12.20
2023-04-11T00:39:01.206Z,12.20
2023-04-11T00:41:29.493Z,12.30
2023-04-11T00:43:58.557Z,12.30
2023-04-11T00:46:27.901Z,12.30
2023-04-11T00:48:56.315Z,12.30
2023-04-11T00:51:25.689Z,12.20
2023-04-11T00:53:54.483Z,12.30
2023-04-11T00:56:23.893Z,12.30
2023-04-11T00:58:52.077Z,12.20
2023-04-11T01:01:25.010Z,12.20
2023-04-11T01:03:53.806Z,12.20
2023-04-11T01:06:22.661Z,12.20
2023-04-11T01:08:51.589Z,12.20
2023-04-11T01:11:20.677Z,12.20
2023-04-11T01:13:51.384Z,12.20
2023-04-11T01:16:21.427Z,12.20
2023-04-11T01:18:50.007Z,12.10
2023-04-11T01:21:19.512Z,12.10
2023-04-11T01:23:52.634Z,12.20
2023-04-11T01:26:21.085Z,12.20
2023-04-11T01:28:49.581Z,12.10
2023-04-11T01:31:17.740Z,12.10
2023-04-11T01:33:45.826Z,12.10
2023-04-11T01:36:14.302Z,12.10
2023-04-11T01:38:42.498Z,12.10
2023-04-11T01:41:12.222Z,12.10
2023-04-11T01:43:40.322Z,12.00
2023-04-11T01:46:09.070Z,12.10
2023-04-11T01:48:38.673Z,12.00
2023-04-11T01:51:08.226Z,12.00
2023-04-11T01:53:36.279Z,12.00
2023-04-11T01:56:04.617Z,11.90
2023-04-11T01:58:34.045Z,12.00
2023-04-11T02:01:02.429Z,11.90
2023-04-11T02:03:30.688Z,12.00
2023-04-11T02:05:58.894Z,12.00
2023-04-11T02:08:27.066Z,11.80
2023-04-11T02:10:56.806Z,11.90
2023-04-11T02:13:24.850Z,11.90
2023-04-11T02:15:54.263Z,11.90
2023-04-11T02:18:22.489Z,11.80
2023-04-11T02:20:51.142Z,11.80
2023-04-11T02:23:19.650Z,11.90
2023-04-11T02:25:48.143Z,11.90
2023-04-11T02:28:16.175Z,11.80
2023-04-11T02:30:44.240Z,11.90
2023-04-11T02:33:14.055Z,11.90
2023-04-11T02:35:42.646Z,11.90
2023-04-11T02:38:11.040Z,11.80
2023-04-11T02:40:39.106Z,11.80
2023-04-11T02:43:08.562Z,11.80
2023-04-11T02:45:36.786Z,11.90
2023-04-11T02:48:05.718Z,11.80
2023-04-11T02:50:40.817Z,11.80
2023-04-11T02:53:08.894Z,11.80
2023-04-11T02:55:41.566Z,11.80
2023-04-11T02:58:09.624Z,11.80
2023-04-11T03:00:39.122Z,11.80
2023-04-11T03:03:09.688Z,11.80
2023-04-11T03:05:43.614Z,11.70
2023-04-11T03:08:12.896Z,11.70
2023-04-11T03:10:46.957Z,11.70
2023-04-11T03:13:15.799Z,11.70
2023-04-11T03:15:45.277Z,11.70
2023-04-11T03:18:14.212Z,11.70
2023-04-11T03:20:46.810Z,11.70
2023-04-11T03:23:16.678Z,11.70
2023-04-11T03:25:45.621Z,11.70
2023-04-11T03:28:14.921Z,11.70
2023-04-11T03:30:43.774Z,11.70
2023-04-11T03:33:14.622Z,11.60
2023-04-11T03:35:42.712Z,11.60
2023-04-11T03:38:12.178Z,11.60
2023-04-11T03:40:40.359Z,11.50
2023-04-11T03:43:15.501Z,11.50
2023-04-11T03:45:43.605Z,11.60
2023-04-11T03:48:26.346Z,11.50
2023-04-11T03:50:59.447Z,11.50
2023-04-11T03:53:38.536Z,11.60
2023-04-11T03:56:20.921Z,11.60
2023-04-11T03:58:49.491Z,11.50
2023-04-11T04:01:20.134Z,11.50
2023-04-11T04:03:50.861Z,11.50
2023-04-11T04:06:19.391Z,11.50
2023-04-11T04:08:50.208Z,11.40
2023-04-11T04:11:20.020Z,11.40
2023-04-11T04:13:48.597Z,11.40
2023-04-11T04:16:19.034Z,11.40
2023-04-11T04:18:52.461Z,11.40
2023-04-11T04:21:26.450Z,11.40
2023-04-11T04:24:03.304Z,11.30
2023-04-11T04:26:38.629Z,11.40
2023-04-11T04:29:21.133Z,11.40
2023-04-11T04:31:56.912Z,11.40
2023-04-11T04:34:35.058Z,11.40
2023-04-11T04:37:03.468Z,11.40
2023-04-11T04:39:42.023Z,11.50
2023-04-11T04:42:12.043Z,11.40
2023-04-11T04:44:41.549Z,11.50
2023-04-11T04:47:18.913Z,11.40
2023-04-11T04:49:47.079Z,11.40
2023-04-11T04:52:16.913Z,11.50
2023-04-11T04:54:46.709Z,11.60
2023-04-11T04:57:15.055Z,11.60
2023-04-11T04:59:45.411Z,11.50
2023-04-11T05:02:17.081Z,11.50
2023-04-11T05:04:46.124Z,11.50
2023-04-11T05:07:15.974Z,11.50
2023-04-11T05:09:47.707Z,11.50
2023-04-11T05:12:26.292Z,11.50
2023-04-11T05:14:57.976Z,11.50
2023-04-11T05:17:29.518Z,11.50
2023-04-11T05:19:57.947Z,11.50
2023-04-11T05:22:27.132Z,11.50
2023-04-11T05:24:58.472Z,11.50
2023-04-11T05:27:28.093Z,11.40
2023-04-11T05:29:56.258Z,11.40
2023-04-11T05:32:24.379Z,11.50
2023-04-11T05:34:55.839Z,11.40
2023-04-11T05:37:33.245Z,11.50
2023-04-11T05:40:02.699Z,11.50
2023-04-11T05:42:30.777Z,11.40
2023-04-11T05:45:00.742Z,11.40
2023-04-11T05:47:29.458Z,11.50
2023-04-11T05:49:57.646Z,11.40
2023-04-11T05:52:26.740Z,11.40
2023-04-11T05:54:54.757Z,11.40
2023-04-11T05:57:24.132Z,11.40
2023-04-11T05:59:53.061Z,11.50
2023-04-11T06:02:21.517Z,11.40
2023-04-11T06:04:49.674Z,11.40
2023-04-11T06:07:17.783Z,11.40
2023-04-11T06:09:46.084Z,11.40
2023-04-11T06:12:14.141Z,11.40
2023-04-11T06:14:43.491Z,11.50
2023-04-11T06:17:11.564Z,11.50
2023-04-11T06:19:39.696Z,11.40
2023-04-11T06:22:07.787Z,11.50
2023-04-11T06:24:37.100Z,11.50
2023-04-11T06:27:05.707Z,11.40
2023-04-11T06:29:33.794Z,11.50
2023-04-11T06:32:03.270Z,11.40
2023-04-11T06:34:31.287Z,11.50
2023-04-11T06:36:59.362Z,11.50
2023-04-11T06:39:27.429Z,11.50
2023-04-11T06:41:56.474Z,11.40
2023-04-11T06:44:27.758Z,11.40
2023-04-11T06:46:56.665Z,11.40
2023-04-11T06:49:28.067Z,11.40
2023-04-11T06:51:56.500Z,11.60
2023-04-11T06:54:24.690Z,11.50
2023-04-11T06:56:53.161Z,11.50
2023-04-11T06:59:21.599Z,11.50
2023-04-11T07:01:50.550Z,11.50
2023-04-11T07:04:18.886Z,11.50
2023-04-11T07:06:48.433Z,11.40
2023-04-11T07:09:16.660Z,11.60
2023-04-11T07:11:45.050Z,11.50
2023-04-11T07:14:13.091Z,11.60
2023-04-11T07:16:41.376Z,11.60
2023-04-11T07:19:09.554Z,11.60
2023-04-11T07:21:38.314Z,11.50
2023-04-11T07:24:10.564Z,11.60
2023-04-11T07:26:38.858Z,11.50
2023-04-11T07:29:09.143Z,11.60
2023-04-11T07:31:38.915Z,11.70
2023-04-11T07:34:07.034Z,11.70
2023-04-11T07:36:35.360Z,11.60
2023-04-11T07:39:04.452Z,11.60
2023-04-11T07:41:33.841Z,11.60
2023-04-11T07:44:01.860Z,11.60
2023-04-11T07:46:29.858Z,11.70
2023-04-11T07:48:57.866Z,11.80
2023-04-11T07:51:26.426Z,11.70
2023-04-11T07:53:55.104Z,11.80
2023-04-11T07:56:23.337Z,11.80
2023-04-11T07:58:52.726Z,11.80
2023-04-11T08:01:21.923Z,11.90
2023-04-11T08:03:50.387Z,11.90
2023-04-11T08:06:18.483Z,11.90
2023-04-11T08:08:47.697Z,11.90
2023-04-11T08:11:16.003Z,11.80
2023-04-11T08:13:44.408Z,11.90
2023-04-11T08:16:15.625Z,11.90
2023-04-11T08:18:45.824Z,12.00
2023-04-11T08:21:14.046Z,12.00
2023-04-11T08:23:42.824Z,12.20
2023-04-11T08:26:12.814Z,12.30
2023-04-11T08:28:42.929Z,12.40
2023-04-11T08:31:13.694Z,12.40
2023-04-11T08:33:42.060Z,12.40
2023-04-11T08:36:11.292Z,12.30
2023-04-11T08:38:40.106Z,12.40
2023-04-11T08:41:08.325Z,12.40
2023-04-11T08:43:36.854Z,12.30
2023-04-11T08:46:05.555Z,12.30
2023-04-11T08:48:35.234Z,12.30
2023-04-11T08:51:03.357Z,12.20
2023-04-11T08:53:32.247Z,12.30
2023-04-11T08:56:00.891Z,12.40
2023-04-11T08:58:29.037Z,12.30
2023-04-11T09:00:57.096Z,12.30
2023-04-11T09:03:25.207Z,12.30
2023-04-11T09:05:57.184Z,12.30
2023-04-11T09:08:39.239Z,12.30
2023-04-11T09:11:07.349Z,12.30
2023-04-11T09:13:35.452Z,12.30
2023-04-11T09:16:08.979Z,12.40
2023-04-11T09:18:38.812Z,12.50
2023-04-11T09:21:09.793Z,12.40
2023-04-11T09:23:38.769Z,12.40
2023-04-11T09:26:07.737Z,12.30
2023-04-11T09:28:43.171Z,12.30
2023-04-11T09:31:12.933Z,12.30
2023-04-11T09:33:52.659Z,12.30
2023-04-11T09:36:24.171Z,12.30
2023-04-11T09:38:52.349Z,12.40
2023-04-11T09:41:31.456Z,12.50
2023-04-11T09:44:00.270Z,12.40
2023-04-11T09:46:28.465Z,12.40
2023-04-11T09:48:58.145Z,12.40
2023-04-11T09:51:36.351Z,12.40
2023-04-11T09:54:06.517Z,12.50
2023-04-11T09:56:35.416Z,12.60
2023-04-11T09:59:05.121Z,12.60
2023-04-11T10:01:33.456Z,12.70
2023-04-11T10:04:01.891Z,12.80
2023-04-11T10:06:38.540Z,12.90
2023-04-11T10:09:11.308Z,13.00
2023-04-11T10:11:42.225Z,13.00
2023-04-11T10:14:10.653Z,13.00
2023-04-11T10:17:21.853Z,13.00
2023-04-11T10:19:51.659Z,13.00
2023-04-11T10:22:57.553Z,13.00
2023-04-11T10:25:27.461Z,12.90
2023-04-11T10:28:00.655Z,12.80
2023-04-11T10:31:01.566Z,12.80
2023-04-11T10:33:29.751Z,13.00
2023-04-11T10:35:58.867Z,13.10
2023-04-11T10:38:48.068Z,13.20
2023-04-11T10:41:19.289Z,13.30
2023-04-11T10:43:47.596Z,13.30
2023-04-11T10:46:20.900Z,13.30
2023-04-11T10:48:59.708Z,13.40
2023-04-11T10:51:28.921Z,13.40
2023-04-11T10:53:59.422Z,13.30
2023-04-11T10:56:56.659Z,13.40
2023-04-11T11:00:09.249Z,13.60
2023-04-11T11:02:41.468Z,13.50
2023-04-11T11:05:20.457Z,13.30
2023-04-11T11:07:53.617Z,13.30
2023-04-11T11:10:41.279Z,13.30
2023-04-11T11:13:11.134Z,13.10
2023-04-11T11:15:39.730Z,13.10
2023-04-11T11:18:09.848Z,13.30
2023-04-11T11:20:38.572Z,13.60
2023-04-11T11:23:08.700Z,13.70
2023-04-11T11:25:37.502Z,13.80
2023-04-11T11:28:07.243Z,13.90
2023-04-11T11:30:37.952Z,13.90
2023-04-11T11:33:17.765Z,14.00
2023-04-11T11:35:52.821Z,14.10
2023-04-11T11:38:21.774Z,14.10
2023-04-11T11:40:50.470Z,14.00
2023-04-11T11:43:19.397Z,14.10
2023-04-11T11:46:07.391Z,14.00
2023-04-11T11:48:36.853Z,14.00
2023-04-11T11:51:05.165Z,13.90
2023-04-11T11:53:33.793Z,14.00
2023-04-11T11:56:12.057Z,14.00
2023-04-11T11:58:44.375Z,14.00
2023-04-11T12:01:18.150Z,14.00
2023-04-11T12:03:51.223Z,14.10
2023-04-11T12:06:19.696Z,14.10
2023-04-11T12:08:53.712Z,14.20
2023-04-11T12:11:22.355Z,14.20
2023-04-11T12:13:54.092Z,14.10
2023-04-11T12:16:24.674Z,14.20
2023-04-11T12:18:52.911Z,14.20
2023-04-11T12:21:21.082Z,14.20
2023-04-11T12:23:49.177Z,14.20
2023-04-11T12:26:17.855Z,14.20
2023-04-11T12:28:45.897Z,14.20
2023-04-11T12:31:14.627Z,14.20
2023-04-11T12:33:44.283Z,14.20
2023-04-11T12:36:13.610Z,14.20
2023-04-11T12:38:42.268Z,14.20
2023-04-11T12:43:42.231Z,14.20
2023-04-11T12:46:11.524Z,14.20
2023-04-11T12:48:39.569Z,14.10
2023-04-11T12:51:09.211Z,14.10
2023-04-11T12:53:37.222Z,14.10
2023-04-11T12:56:05.857Z,14.30
2023-04-11T12:58:34.009Z,14.10
2023-04-11T13:01:02.020Z,14.10
2023-04-11T13:03:30.140Z,14.20
2023-04-11T13:05:58.276Z,14.20
2023-04-11T13:08:28.419Z,14.20
2023-04-11T13:10:56.490Z,14.20
2023-04-11T13:13:24.555Z,14.20
2023-04-11T13:15:52.633Z,14.20
2023-04-11T13:18:21.024Z,14.20
2023-04-11T13:20:49.091Z,14.20
2023-04-11T13:23:17.554Z,14.20
2023-04-11T13:25:47.038Z,14.20
2023-04-11T13:28:15.561Z,14.20
2023-04-11T13:30:43.598Z,14.20
2023-04-11T13:33:11.669Z,14.20
2023-04-11T13:35:39.756Z,14.20
2023-04-11T13:38:07.807Z,14.20
2023-04-11T13:40:36.150Z,14.30
2023-04-11T13:43:05.553Z,14.20
2023-04-11T13:45:33.640Z,14.20
2023-04-11T13:48:01.759Z,14.20
2023-04-11T13:50:29.910Z,14.30
2023-04-11T13:52:57.993Z,14.20
2023-04-11T13:55:26.110Z,14.30
2023-04-11T13:57:54.174Z,14.30
2023-04-11T14:00:24.151Z,14.30
2023-04-11T14:02:52.802Z,14.20
2023-04-11T14:05:21.119Z,14.20
2023-04-11T14:07:49.529Z,14.20
2023-04-11T14:10:17.658Z,14.30
2023-04-11T14:12:45.860Z,14.30
2023-04-11T14:15:13.891Z,14.30
2023-04-11T14:17:44.069Z,14.40
2023-04-11T14:20:12.572Z,14.30
2023-04-11T14:22:41.161Z,14.30
2023-04-11T14:25:11.091Z,14.30
2023-04-11T14:27:42.132Z,14.30
2023-04-11T14:30:11.456Z,14.30
2023-04-11T14:32:39.836Z,14.40
2023-04-11T14:35:10.362Z,14.30
2023-04-11T14:37:38.475Z,14.30
2023-04-11T14:40:10.062Z,14.30
2023-04-11T14:42:38.182Z,14.30
2023-04-11T14:45:07.218Z,14.20
2023-04-11T14:47:35.720Z,14.20
2023-04-11T14:50:03.864Z,14.30
2023-04-11T14:52:33.242Z,14.30
2023-04-11T14:55:01.659Z,14.30
2023-04-11T14:57:44.969Z,14.30
2023-04-11T15:00:18.847Z,14.20
2023-04-11T15:02:48.347Z,14.10
2023-04-11T15:05:17.894Z,14.10
2023-04-11T15:07:48.918Z,14.10
2023-04-11T15:10:19.105Z,14.10
2023-04-11T15:12:47.349Z,14.10
2023-04-11T15:15:16.280Z,14.20
2023-04-11T15:17:47.397Z,14.20
2023-04-11T15:20:16.424Z,14.10
2023-04-11T15:22:47.249Z,14.10
2023-04-11T15:25:16.642Z,14.10
2023-04-11T15:27:44.835Z,14.10
2023-04-11T15:30:13.595Z,14.10
2023-04-11T15:32:44.067Z,14.00
2023-04-11T15:35:12.289Z,14.00
2023-04-11T15:37:41.032Z,14.00
2023-04-11T15:40:12.295Z,14.00
2023-04-11T15:42:40.693Z,14.10
2023-04-11T15:45:09.532Z,14.10
2023-04-11T15:47:37.710Z,14.10
2023-04-11T15:50:06.661Z,14.10
2023-04-11T15:52:34.698Z,14.00
2023-04-11T15:55:02.746Z,14.00
2023-04-11T15:57:32.857Z,14.00
2023-04-11T16:00:01.204Z,14.00
2023-04-11T16:02:37.984Z,14.10
2023-04-11T16:05:07.706Z,14.10
2023-04-11T16:07:35.975Z,14.10
2023-04-11T16:10:04.190Z,14.10
2023-04-11T16:12:33.594Z,14.10
2023-04-11T16:15:01.667Z,14.10
2023-04-11T16:17:29.906Z,14.10
2023-04-11T16:19:58.061Z,14.10
2023-04-11T16:22:26.280Z,14.10
2023-04-11T16:24:56.139Z,14.00
2023-04-11T16:27:24.367Z,14.00
2023-04-11T16:29:59.668Z,14.00
2023-04-11T16:32:27.864Z,14.00
2023-04-11T16:34:57.656Z,14.00
2023-04-11T16:37:25.934Z,14.00
2023-04-11T16:39:54.392Z,13.90
2023-04-11T16:42:23.595Z,13.90
2023-04-11T16:44:53.180Z,13.90
2023-04-11T16:47:26.003Z,13.90
2023-04-11T16:49:54.905Z,13.90
2023-04-11T16:52:23.011Z,13.80
2023-04-11T16:54:52.059Z,13.80
2023-04-11T16:57:20.099Z,13.80
2023-04-11T16:59:48.169Z,13.70
2023-04-11T17:02:17.570Z,13.70
2023-04-11T17:04:45.593Z,13.70
2023-04-11T17:07:13.622Z,13.70
2023-04-11T17:09:42.242Z,13.60
2023-04-11T17:12:10.449Z,13.60
2023-04-11T17:14:38.487Z,13.60
2023-04-11T17:17:06.540Z,13.60
2023-04-11T17:19:35.982Z,13.60
2023-04-11T17:22:05.784Z,13.60
2023-04-11T17:24:33.873Z,13.60
2023-04-11T17:27:01.868Z,13.60
2023-04-11T17:29:30.018Z,13.60
2023-04-11T17:31:58.069Z,13.60
2023-04-11T17:34:26.438Z,13.60
2023-04-11T17:36:58.376Z,13.60
2023-04-11T17:39:26.857Z,13.50
2023-04-11T17:41:55.402Z,13.50
2023-04-11T17:44:23.429Z,13.50
2023-04-11T17:46:51.875Z,13.50
2023-04-11T17:49:21.541Z,13.40
2023-04-11T17:51:58.750Z,13.40
2023-04-11T17:54:29.185Z,13.40
2023-04-11T17:56:57.390Z,13.40
2023-04-11T17:59:26.131Z,13.40
2023-04-11T18:01:56.008Z,13.40
2023-04-11T18:04:24.513Z,13.30
2023-04-11T18:06:52.904Z,13.30
2023-04-11T18:09:21.858Z,13.30
2023-04-11T18:11:51.343Z,13.30
2023-04-11T18:14:19.322Z,13.30
2023-04-11T18:16:47.458Z,13.30
2023-04-11T18:19:15.640Z,13.30
2023-04-11T18:21:44.235Z,13.30
2023-04-11T18:24:12.771Z,13.20
2023-04-11T18:26:40.945Z,13.20
2023-04-11T18:29:10.328Z,13.20
2023-04-11T18:31:38.458Z,13.20
2023-04-11T18:34:07.167Z,13.20
2023-04-11T18:36:36.319Z,13.20
2023-04-11T18:39:04.712Z,13.20
2023-04-11T18:41:33.746Z,13.20
2023-04-11T18:44:02.654Z,13.20
2023-04-11T18:46:34.254Z,13.10
2023-04-11T18:49:04.703Z,13.10
2023-04-11T18:51:35.469Z,13.10
2023-04-11T18:54:03.669Z,13.10
2023-04-11T18:56:32.005Z,13.10
2023-04-11T18:59:06.019Z,13.10
2023-04-11T19:01:39.006Z,13.00
2023-04-11T19:04:07.784Z,12.90
2023-04-11T19:06:36.347Z,12.90
2023-04-11T19:09:04.611Z,12.80
2023-04-11T19:11:33.184Z,12.80
2023-04-11T19:14:02.267Z,12.80
2023-04-11T19:16:31.174Z,12.70
2023-04-11T19:19:01.138Z,12.80
2023-04-11T19:21:29.598Z,12.80
2023-04-11T19:23:59.377Z,12.70
2023-04-11T19:26:27.633Z,12.70
2023-04-11T19:28:56.142Z,12.70
2023-04-11T19:31:24.921Z,12.60
2023-04-11T19:33:54.203Z,12.50
2023-04-11T19:36:23.759Z,12.60
2023-04-11T19:38:51.800Z,12.60
2023-04-11T19:41:20.734Z,12.60
2023-04-11T19:43:49.139Z,12.60
2023-04-11T19:46:18.118Z,12.50
2023-04-11T19:48:46.542Z,12.40
2023-04-11T19:51:14.689Z,12.40
2023-04-11T19:53:44.180Z,12.40
2023-04-11T19:56:12.187Z,12.30
2023-04-11T19:58:40.213Z,12.30
2023-04-11T20:01:09.574Z,12.40
2023-04-11T20:03:37.968Z,12.30
2023-04-11T20:06:06.521Z,12.30
2023-04-11T20:08:36.538Z,12.20
2023-04-11T20:11:06.357Z,12.20
2023-04-11T20:13:35.892Z,12.20
2023-04-11T20:16:07.961Z,12.20
2023-04-11T20:18:36.010Z,12.30
2023-04-11T20:21:06.210Z,12.30
2023-04-11T20:23:35.414Z,12.40
2023-04-11T20:26:04.864Z,12.30
2023-04-11T20:28:33.115Z,12.20
2023-04-11T20:31:01.268Z,12.20
2023-04-11T20:33:29.332Z,12.20
2023-04-11T20:35:57.765Z,12.10
2023-04-11T20:38:26.336Z,12.10
2023-04-11T20:40:54.374Z,12.00
2023-04-11T20:43:26.023Z,12.10
2023-04-11T20:45:55.815Z,12.00
2023-04-11T20:48:25.836Z,12.00
2023-04-11T20:50:55.759Z,12.00
2023-04-11T20:53:24.663Z,12.00
2023-04-11T20:55:54.146Z,12.00
2023-04-11T20:58:23.499Z,12.10
2023-04-11T21:00:51.554Z,12.10
2023-04-11T21:03:19.749Z,12.00
2023-04-11T21:05:48.250Z,12.00
2023-04-11T21:08:16.501Z,11.90
2023-04-11T21:10:44.549Z,12.00
2023-04-11T21:13:13.316Z,12.00
2023-04-11T21:15:42.719Z,11.90
2023-04-11T21:18:10.936Z,11.90
2023-04-11T21:20:40.576Z,12.00
2023-04-11T21:23:08.655Z,11.90
2023-04-11T21:25:38.148Z,11.90
2023-04-11T21:28:06.220Z,11.80
2023-04-11T21:30:34.250Z,11.80
2023-04-11T21:33:03.685Z,11.90
2023-04-11T21:35:31.781Z,11.80
2023-04-11T21:37:59.847Z,11.80
2023-04-11T21:40:27.864Z,11.70
2023-04-11T21:42:55.991Z,11.70
2023-04-11T21:45:24.146Z,11.70
2023-04-11T21:47:52.559Z,11.70
2023-04-11T21:50:22.570Z,11.70
2023-04-11T21:52:50.664Z,11.70
2023-04-11T21:55:18.845Z,11.70
2023-04-11T21:57:46.966Z,11.70
2023-04-11T22:00:15.433Z,11.60
2023-04-11T22:02:43.547Z,11.60
2023-04-11T22:05:12.681Z,11.60
2023-04-11T22:07:48.018Z,11.60
2023-04-11T22:10:22.135Z,11.70
2023-04-11T22:12:50.236Z,11.60
2023-04-11T22:15:18.915Z,11.70
2023-04-11T22:17:50.403Z,11.70
2023-04-11T22:20:20.017Z,11.70
2023-04-11T22:22:49.473Z,11.80
2023-04-11T22:25:18.143Z,11.80
2023-04-11T22:27:46.467Z,11.80
2023-04-11T22:30:16.491Z,11.80
2023-04-11T22:32:44.610Z,11.70
2023-04-11T22:35:13.524Z,11.70
2023-04-11T22:37:41.568Z,11.70
2023-04-11T22:40:13.547Z,11.60
2023-04-11T22:42:41.606Z,11.60
2023-04-11T22:45:10.787Z,11.70
2023-04-11T22:47:40.087Z,11.60
2023-04-11T22:50:09.451Z,11.60
2023-04-11T22:52:37.726Z,11.60
2023-04-11T22:55:07.338Z,11.60
2023-04-11T22:57:37.024Z,11.60
2023-04-11T23:00:07.087Z,11.60
2023-04-11T23:02:37.316Z,11.60
2023-04-11T23:05:07.807Z,11.60
2023-04-11T23:07:35.878Z,11.60
2023-04-11T23:10:06.018Z,11.50
2023-04-11T23:12:34.077Z,11.60
2023-04-11T23:15:04.146Z,11.50
2023-04-11T23:17:33.107Z,11.50
2023-04-11T23:20:01.151Z,11.50
2023-04-11T23:22:29.189Z,11.50
2023-04-11T23:24:57.214Z,11.50
2023-04-11T23:27:25.266Z,11.50
2023-04-11T23:29:54.181Z,11.50
2023-04-11T23:32:23.665Z,11.50
2023-04-11T23:34:51.693Z,11.50
2023-04-11T23:37:19.774Z,11.50
2023-04-11T23:39:47.827Z,11.50
2023-04-11T23:42:16.118Z,11.50
2023-04-11T23:44:44.203Z,11.50
2023-04-11T23:47:12.383Z,11.40
2023-04-11T23:49:42.222Z,11.40
2023-04-11T23:52:11.123Z,11.40
2023-04-11T23:54:39.242Z,11.40
2023-04-11T23:57:07.391Z,11.40
2023-04-11T23:59:36.094Z,11.40
